Time;durP1;ratioP1;P1;durP2;ratioP2;P2;SDS_P1;SDS_P2;PMS_P1;PMS_P2;Temp;Humidity;BMP_temperature;BMP_pressure;BME280_temperature;BME280_humidity;BME280_pressure;Samples;Min_cycle;Max_cycle;Signal;HPM_P1;HPM_P2
2021/12/06 00:01:57;;;;;;;43.97;22.85;;;1.60;99.90;;;;;;5023725;28;20351;-73
2021/12/06 00:04:43;;;;;;;26.13;16.58;;;1.60;99.90;;;;;;5024515;28;20523;-73
2021/12/06 00:07:29;;;;;;;43.65;22.38;;;1.40;99.90;;;;;;5014949;28;20092;-73
2021/12/06 00:10:14;;;;;;;16.48;9.52;;;1.40;99.90;;;;;;5019874;28;20130;-73
2021/12/06 00:13:00;;;;;;;23.42;10.40;;;1.50;99.90;;;;;;5024256;28;20052;-73
2021/12/06 00:15:48;;;;;;;;;;;1.50;99.90;;;;;;5023122;28;20472;-73
2021/12/06 00:18:34;;;;;;;16.42;9.40;;;1.50;99.90;;;;;;5023563;28;19928;-73
2021/12/06 00:21:21;;;;;;;23.08;10.27;;;1.30;99.90;;;;;;5024313;28;20051;-73
2021/12/06 00:24:07;;;;;;;19.48;8.93;;;1.50;99.90;;;;;;5021527;28;20071;-73
2021/12/06 00:26:53;;;;;;;19.60;8.93;;;1.50;99.90;;;;;;5022218;28;20053;-72
2021/12/06 00:29:38;;;;;;;39.13;11.88;;;1.40;99.90;;;;;;5021619;28;20044;-72
2021/12/06 00:32:24;;;;;;;25.45;12.27;;;1.20;99.90;;;;;;5021779;28;20468;-72
2021/12/06 00:35:18;;;;;;;28.60;12.52;;;1.30;99.90;;;;;;5021966;28;20092;-72
2021/12/06 00:38:04;;;;;;;25.50;12.95;;;1.30;99.90;;;;;;5021403;28;20118;-72
2021/12/06 00:40:50;;;;;;;17.38;10.38;;;1.20;99.90;;;;;;5023294;28;20299;-72
2021/12/06 00:43:35;;;;;;;19.60;10.23;;;1.20;99.90;;;;;;5022819;28;20115;-72
2021/12/06 00:46:22;;;;;;;21.23;11.55;;;1.20;99.90;;;;;;5022287;28;20072;-73
2021/12/06 00:49:09;;;;;;;23.30;10.70;;;1.30;99.90;;;;;;5002095;28;20529;-72
2021/12/06 00:51:54;;;;;;;24.95;12.25;;;1.20;99.90;;;;;;5018292;28;20672;-72
2021/12/06 00:54:40;;;;;;;21.48;10.82;;;1.10;99.90;;;;;;5007401;28;20057;-72
2021/12/06 00:57:27;;;;;;;21.50;10.57;;;1.10;99.90;;;;;;5020116;28;20049;-72
2021/12/06 01:00:42;;;;;;;17.42;10.00;;;1.20;99.90;;;;;;5020780;28;20052;-72
2021/12/06 01:03:31;;;;;;;20.52;9.77;;;1.20;99.90;;;;;;5022662;28;20183;-72
2021/12/06 01:06:18;;;;;;;18.10;11.10;;;1.40;99.90;;;;;;5021995;28;20123;-72
2021/12/06 01:09:04;;;;;;;24.45;9.65;;;1.30;99.90;;;;;;5021554;28;20064;-71
2021/12/06 01:11:49;;;;;;;23.05;8.80;;;1.40;99.90;;;;;;5021922;28;20183;-72
2021/12/06 01:14:35;;;;;;;20.20;7.78;;;1.30;99.90;;;;;;5021648;28;20092;-71
2021/12/06 01:17:21;;;;;;;18.35;8.07;;;1.40;99.90;;;;;;5021506;28;20155;-72
2021/12/06 01:20:11;;;;;;;18.27;8.38;;;1.40;99.90;;;;;;4990112;28;20048;-72
2021/12/06 01:23:11;;;;;;;14.82;7.00;;;1.40;99.90;;;;;;5001873;28;20565;-72
2021/12/06 01:40:28;;;;;;;12.48;6.93;;;1.20;99.90;;;;;;5019075;28;20048;-72
2021/12/06 01:43:13;;;;;;;20.65;6.82;;;1.30;99.90;;;;;;5020916;28;20180;-72
2021/12/06 01:45:59;;;;;;;15.43;6.25;;;1.40;99.90;;;;;;5022370;28;20192;-72
2021/12/06 01:48:45;;;;;;;18.85;6.82;;;1.20;99.90;;;;;;4997744;28;20128;-72
2021/12/06 01:51:30;;;;;;;;;;;1.20;99.90;;;;;;5005598;28;20428;-72
2021/12/06 01:54:17;;;;;;;12.55;5.90;;;1.30;99.90;;;;;;5024319;28;19932;-71
2021/12/06 01:57:03;;;;;;;14.88;7.70;;;1.20;99.90;;;;;;5037977;28;20052;-72
2021/12/06 01:59:50;;;;;;;14.68;6.90;;;1.20;99.90;;;;;;5005366;28;20076;-72
2021/12/06 02:02:35;;;;;;;14.18;6.43;;;1.30;99.90;;;;;;5020678;28;20051;-72
2021/12/06 02:05:21;;;;;;;13.60;6.93;;;1.30;99.90;;;;;;5005751;28;20430;-72
2021/12/06 02:08:08;;;;;;;14.48;6.57;;;1.30;99.90;;;;;;5017369;28;20111;-72
2021/12/06 02:11:00;;;;;;;15.20;7.03;;;1.30;99.90;;;;;;5000396;28;20053;-72
2021/12/06 02:13:54;;;;;;;20.65;7.38;;;1.30;99.90;;;;;;5000273;28;20085;-72
2021/12/06 02:16:56;;;;;;;15.23;6.50;;;1.30;99.90;;;;;;4986565;28;20048;-71
2021/12/06 02:19:49;;;;;;;11.70;7.43;;;1.30;99.90;;;;;;5000619;28;20104;-71
2021/12/06 02:22:38;;;;;;;14.50;6.68;;;1.40;99.90;;;;;;4986511;28;20139;-71
2021/12/06 02:25:24;;;;;;;12.90;7.13;;;1.40;99.90;;;;;;5032115;28;20425;-72
2021/12/06 02:28:09;;;;;;;16.98;7.60;;;1.30;99.90;;;;;;5024870;28;20051;-72
2021/12/06 02:30:55;;;;;;;15.60;7.97;;;1.40;99.90;;;;;;5005231;28;21362;-72
2021/12/06 02:33:44;;;;;;;13.93;8.00;;;1.40;99.90;;;;;;5006342;28;20521;-72
2021/12/06 02:36:30;;;;;;;11.88;6.50;;;1.30;99.90;;;;;;5013365;28;20056;-71
2021/12/06 02:39:22;;;;;;;11.27;6.00;;;1.20;99.90;;;;;;5000580;28;20168;-71
2021/12/06 02:42:14;;;;;;;13.82;7.18;;;1.20;99.90;;;;;;5000581;28;20053;-71
2021/12/06 02:45:00;;;;;;;14.35;7.60;;;1.30;99.90;;;;;;5001675;28;20096;-71
2021/12/06 02:47:53;;;;;;;16.35;7.90;;;1.30;99.90;;;;;;5000448;28;20501;-72
2021/12/06 02:50:50;;;;;;;12.48;7.10;;;1.30;99.90;;;;;;4998183;28;20500;-71
2021/12/06 02:53:37;;;;;;;14.43;6.75;;;1.30;99.90;;;;;;5005071;28;20127;-72
2021/12/06 02:56:39;;;;;;;15.23;6.28;;;1.40;99.90;;;;;;5030962;28;20131;-72
2021/12/06 02:59:26;;;;;;;14.75;6.43;;;1.30;99.90;;;;;;5005025;28;20468;-72
2021/12/06 03:02:16;;;;;;;13.40;6.28;;;1.20;99.90;;;;;;5013702;28;20171;-72
2021/12/06 03:05:04;;;;;;;11.50;5.60;;;1.10;99.90;;;;;;5019974;28;20237;-72
2021/12/06 03:07:57;;;;;;;12.95;5.68;;;1.10;99.90;;;;;;5019422;28;20052;-72
2021/12/06 03:10:44;;;;;;;10.85;6.47;;;1.10;99.90;;;;;;5018466;28;20461;-72
2021/12/06 03:13:30;;;;;;;13.82;6.40;;;1.20;99.90;;;;;;5005563;28;20120;-71
2021/12/06 03:16:17;;;;;;;13.95;7.38;;;1.20;99.90;;;;;;5019119;28;20113;-73
2021/12/06 03:19:05;;;;;;;16.10;9.05;;;1.20;99.90;;;;;;5006178;28;20183;-72
2021/12/06 03:21:52;;;;;;;17.88;9.07;;;1.10;99.90;;;;;;5006873;28;20061;-73
2021/12/06 03:24:39;;;;;;;28.90;8.98;;;1.10;99.90;;;;;;5017888;28;20119;-73
2021/12/06 03:27:25;;;;;;;12.77;7.22;;;1.10;99.90;;;;;;5021978;28;20118;-73
2021/12/06 03:30:15;;;;;;;17.73;7.57;;;1.20;99.90;;;;;;5021735;28;20424;-72
2021/12/06 03:33:00;;;;;;;18.88;8.50;;;1.10;99.90;;;;;;5023437;28;20079;-71
2021/12/06 03:35:46;;;;;;;18.67;9.68;;;1.20;99.90;;;;;;5007631;28;20056;-71
2021/12/06 03:38:32;;;;;;;17.92;9.40;;;1.10;99.90;;;;;;5022146;28;20057;-72
2021/12/06 03:41:19;;;;;;;25.92;12.00;;;1.00;99.90;;;;;;5023138;28;20047;-73
2021/12/06 03:44:06;;;;;;;36.28;17.70;;;0.90;99.90;;;;;;5023338;28;20060;-72
2021/12/06 03:47:02;;;;;;;25.42;13.13;;;0.80;99.90;;;;;;5008035;28;20049;-72
2021/12/06 03:49:48;;;;;;;22.30;11.77;;;0.80;99.90;;;;;;4988853;28;20061;-72
2021/12/06 03:52:35;;;;;;;20.83;9.45;;;0.90;99.90;;;;;;5003024;28;20148;-72
2021/12/06 03:55:21;;;;;;;17.75;8.77;;;0.80;99.90;;;;;;5017500;28;20060;-72
2021/12/06 03:58:07;;;;;;;18.17;8.20;;;0.90;99.90;;;;;;5021768;28;20056;-72
2021/12/06 04:00:54;;;;;;;16.27;7.28;;;0.80;99.90;;;;;;5020692;28;20210;-72
2021/12/06 04:03:42;;;;;;;13.93;6.78;;;0.70;99.90;;;;;;5022888;28;20445;-72
2021/12/06 04:06:28;;;;;;;21.73;7.68;;;0.50;99.90;;;;;;5022424;28;20048;-72
2021/12/06 04:09:14;;;;;;;18.52;7.60;;;0.50;99.90;;;;;;5034047;28;20049;-71
2021/12/06 04:12:01;;;;;;;19.40;7.50;;;0.40;99.90;;;;;;5024443;28;20863;-72
2021/12/06 04:14:51;;;;;;;19.50;7.93;;;0.40;99.90;;;;;;5009547;28;20052;-72
2021/12/06 04:17:38;;;;;;;17.15;8.30;;;0.40;99.90;;;;;;5020464;28;20539;-72
2021/12/06 04:20:25;;;;;;;19.50;7.70;;;0.50;99.90;;;;;;5002015;28;20172;-72
2021/12/06 04:23:12;;;;;;;17.58;8.57;;;0.50;99.90;;;;;;5004189;28;20065;-72
2021/12/06 04:25:57;;;;;;;37.63;15.52;;;0.40;99.90;;;;;;5021163;28;20059;-73
2021/12/06 04:28:48;;;;;;;40.35;16.27;;;0.60;99.90;;;;;;5019725;28;20543;-73
2021/12/06 04:31:42;;;;;;;38.42;18.08;;;0.60;99.90;;;;;;5020893;28;20172;-73
2021/12/06 04:34:32;;;;;;;26.60;12.98;;;0.70;99.90;;;;;;5019370;28;20150;-72
2021/12/06 04:37:18;;;;;;;22.25;10.27;;;0.70;99.90;;;;;;5021066;28;20056;-73
2021/12/06 04:40:07;;;;;;;36.05;17.63;;;0.70;99.90;;;;;;5008067;28;20112;-72
2021/12/06 04:42:53;;;;;;;42.28;23.65;;;0.70;99.90;;;;;;5021736;28;20049;-73
2021/12/06 04:45:39;;;;;;;50.95;26.65;;;0.70;99.90;;;;;;5019847;28;20052;-73
2021/12/06 04:48:25;;;;;;;33.00;13.90;;;0.60;99.90;;;;;;5021857;28;20191;-73
2021/12/06 04:51:11;;;;;;;18.52;9.75;;;0.70;99.90;;;;;;5021733;28;20052;-73
2021/12/06 04:53:57;;;;;;;22.48;9.75;;;0.70;99.90;;;;;;5010061;28;20143;-72
2021/12/06 04:56:48;;;;;;;17.45;8.90;;;0.60;99.90;;;;;;5013404;28;20061;-73
2021/12/06 04:59:41;;;;;;;28.65;10.70;;;0.50;99.90;;;;;;5032725;28;20060;-73
2021/12/06 05:02:33;;;;;;;25.85;13.85;;;0.60;99.90;;;;;;5018833;28;20596;-73
2021/12/06 05:05:32;;;;;;;29.08;14.32;;;0.70;99.90;;;;;;5017614;28;20049;-73
2021/12/06 05:08:24;;;;;;;36.25;14.52;;;0.60;99.90;;;;;;5019391;28;20566;-73
2021/12/06 05:11:12;;;;;;;35.45;15.20;;;0.60;99.90;;;;;;5019887;28;20543;-73
2021/12/06 05:14:01;;;;;;;32.13;15.07;;;0.60;99.90;;;;;;5022498;28;20140;-73
2021/12/06 05:16:48;;;;;;;31.00;15.35;;;0.70;99.90;;;;;;5020538;28;20571;-73
2021/12/06 05:19:34;;;;;;;44.38;16.88;;;0.70;99.90;;;;;;5021273;28;20052;-73
2021/12/06 05:22:24;;;;;;;48.35;19.90;;;0.60;99.90;;;;;;5022377;28;20056;-73
2021/12/06 05:25:11;;;;;;;47.25;19.48;;;0.70;99.90;;;;;;5021277;28;20417;-73
2021/12/06 05:27:59;;;;;;;72.72;24.33;;;0.80;99.90;;;;;;5016289;28;20809;-73
2021/12/06 05:30:45;;;;;;;116.25;32.70;;;0.80;99.90;;;;;;5006444;28;20056;-73
2021/12/06 05:33:31;;;;;;;133.02;36.72;;;1.00;99.90;;;;;;5021823;28;20869;-72
2021/12/06 05:36:19;;;;;;;134.32;35.70;;;1.10;99.90;;;;;;5021397;28;20049;-72
2021/12/06 05:39:06;;;;;;;139.70;37.72;;;1.20;99.90;;;;;;5002113;28;20065;-72
2021/12/06 05:41:52;;;;;;;205.70;45.97;;;1.20;99.90;;;;;;5001608;28;20061;-73
2021/12/06 05:44:38;;;;;;;174.43;51.72;;;1.20;99.90;;;;;;5006373;28;20048;-72
2021/12/06 05:47:23;;;;;;;261.92;65.75;;;1.30;99.90;;;;;;5020298;28;20116;-72
2021/12/06 05:50:10;;;;;;;217.98;66.13;;;1.30;99.90;;;;;;5006308;28;20044;-73
2021/12/06 05:52:57;;;;;;;127.32;38.78;;;1.40;99.90;;;;;;5022841;28;20143;-72
2021/12/06 05:55:43;;;;;;;67.90;23.63;;;1.40;99.90;;;;;;5040497;28;20091;-72
2021/12/06 05:58:31;;;;;;;51.53;20.65;;;1.40;99.90;;;;;;5017558;28;21955;-72
2021/12/06 06:01:17;;;;;;;51.30;22.40;;;1.40;99.90;;;;;;5016200;28;20052;-72
2021/12/06 06:04:08;;;;;;;51.30;19.80;;;1.30;99.90;;;;;;5018965;28;20087;-72
2021/12/06 06:06:53;;;;;;;62.10;20.10;;;1.30;99.90;;;;;;5018774;28;20053;-72
2021/12/06 06:09:39;;;;;;;72.88;23.27;;;1.30;99.90;;;;;;5020527;28;20481;-71
2021/12/06 06:12:24;;;;;;;63.28;21.70;;;1.30;99.90;;;;;;5007109;28;20049;-71
2021/12/06 06:15:10;;;;;;;48.00;19.02;;;1.30;99.90;;;;;;5020289;28;20111;-72
2021/12/06 06:17:59;;;;;;;53.72;20.10;;;1.30;99.90;;;;;;5019252;28;20049;-71
2021/12/06 06:20:51;;;;;;;55.33;19.85;;;1.30;99.90;;;;;;5021478;28;20766;-72
2021/12/06 06:23:38;;;;;;;55.20;19.83;;;1.30;99.90;;;;;;5009885;28;20429;-72
2021/12/06 06:26:24;;;;;;;48.97;20.27;;;1.30;99.90;;;;;;5026137;28;20060;-72
2021/12/06 06:29:10;;;;;;;;;;;1.30;99.90;;;;;;5034043;28;20044;-72
2021/12/06 06:31:55;;;;;;;56.05;20.13;;;1.30;99.90;;;;;;5013411;28;19963;-72
2021/12/06 06:34:41;;;;;;;51.28;20.45;;;1.30;99.90;;;;;;5012253;28;20068;-72
2021/12/06 06:37:26;;;;;;;55.28;23.52;;;1.30;99.90;;;;;;5017950;28;20169;-72
2021/12/06 06:40:13;;;;;;;48.05;23.25;;;1.30;99.90;;;;;;5014742;28;20057;-74
2021/12/06 06:42:59;;;;;;;65.93;23.75;;;1.30;99.90;;;;;;5017181;28;20052;-72
2021/12/06 06:45:45;;;;;;;61.22;26.50;;;1.30;99.90;;;;;;5019341;28;20045;-72
2021/12/06 06:48:30;;;;;;;69.20;26.70;;;1.40;99.90;;;;;;5018518;28;20516;-72
2021/12/06 06:51:15;;;;;;;76.57;28.05;;;1.40;99.90;;;;;;5019836;28;20421;-72
2021/12/06 06:54:01;;;;;;;;;;;1.40;99.90;;;;;;5020636;28;20138;-73
2021/12/06 06:56:46;;;;;;;66.13;24.58;;;1.50;99.90;;;;;;5028885;28;19972;-74
2021/12/06 06:59:31;;;;;;;78.00;25.45;;;1.50;99.90;;;;;;5010299;28;20167;-74
2021/12/06 07:02:17;;;;;;;71.25;23.83;;;1.50;99.90;;;;;;5023407;28;20044;-74
2021/12/06 07:05:05;;;;;;;75.90;25.52;;;1.50;99.90;;;;;;5024630;28;20051;-74
2021/12/06 07:07:51;;;;;;;107.45;31.25;;;1.60;99.90;;;;;;5023448;28;20559;-74
2021/12/06 07:10:37;;;;;;;104.60;28.50;;;1.60;99.90;;;;;;5008873;28;20166;-74
2021/12/06 07:13:26;;;;;;;107.53;29.52;;;1.60;99.90;;;;;;5023067;28;20194;-71
2021/12/06 07:16:14;;;;;;;107.30;30.60;;;1.60;99.90;;;;;;5023034;28;20092;-71
2021/12/06 07:18:59;;;;;;;118.82;30.35;;;1.60;99.90;;;;;;5025104;28;20154;-73
2021/12/06 07:22:05;;;;;;;98.40;26.55;;;1.60;99.90;;;;;;5024280;28;20605;-72
2021/12/06 07:24:51;;;;;;;112.35;30.50;;;1.60;99.90;;;;;;5023180;28;20140;-72
2021/12/06 07:27:36;;;;;;;141.20;34.33;;;1.60;99.90;;;;;;5015252;28;20064;-73
2021/12/06 07:30:22;;;;;;;136.07;40.95;;;1.60;99.90;;;;;;5022751;28;20049;-72
2021/12/06 07:33:08;;;;;;;162.05;42.67;;;1.70;99.90;;;;;;5019540;28;20048;-73
2021/12/06 07:35:53;;;;;;;177.52;45.08;;;1.60;99.90;;;;;;5021594;28;20048;-72
2021/12/06 07:38:39;;;;;;;;;;;1.80;99.90;;;;;;5004203;28;20184;-72
2021/12/06 07:41:28;;;;;;;104.20;29.05;;;1.80;99.90;;;;;;5001457;28;20011;-72
2021/12/06 07:44:13;;;;;;;117.80;32.90;;;1.50;99.90;;;;;;5002175;28;20045;-72
2021/12/06 07:46:59;;;;;;;148.85;46.33;;;1.40;99.90;;;;;;5000494;28;20052;-72
2021/12/06 07:49:45;;;;;;;177.10;53.50;;;1.40;99.90;;;;;;5004479;28;20409;-72
2021/12/06 07:52:44;;;;;;;163.95;42.40;;;1.50;99.90;;;;;;5021008;28;20188;-72
2021/12/06 07:55:34;;;;;;;138.77;39.83;;;1.50;99.90;;;;;;5022056;28;20064;-72
2021/12/06 07:58:19;;;;;;;132.73;38.67;;;1.60;99.90;;;;;;5022620;28;20048;-73
2021/12/06 08:01:05;;;;;;;130.38;35.85;;;1.70;99.90;;;;;;5021226;28;20048;-72
2021/12/06 08:03:51;;;;;;;116.80;35.67;;;1.50;99.90;;;;;;5022125;28;20529;-72
2021/12/06 08:06:37;;;;;;;;;;;1.50;99.90;;;;;;5020168;28;20754;-72
2021/12/06 08:09:23;;;;;;;133.75;37.97;;;1.50;99.90;;;;;;5020153;28;19936;-72
2021/12/06 08:12:08;;;;;;;126.25;42.28;;;1.60;99.90;;;;;;5021855;28;20064;-73
2021/12/06 08:14:53;;;;;;;;;;;1.60;99.90;;;;;;5022392;28;20051;-71
2021/12/06 08:17:41;;;;;;;109.65;31.15;;;1.60;99.90;;;;;;5018727;28;19928;-72
2021/12/06 08:20:27;;;;;;;112.13;32.90;;;1.50;99.90;;;;;;5020175;28;20160;-72
2021/12/06 08:23:13;;;;;;;109.18;32.38;;;1.50;99.90;;;;;;5020806;28;20083;-71
2021/12/06 08:26:01;;;;;;;99.10;31.33;;;1.50;99.90;;;;;;5027126;28;20051;-72
2021/12/06 08:28:48;;;;;;;139.95;38.05;;;1.60;99.90;;;;;;5018270;28;20179;-71
2021/12/06 08:31:34;;;;;;;150.68;37.72;;;1.80;99.90;;;;;;5019565;28;20126;-71
2021/12/06 08:34:19;;;;;;;163.55;39.55;;;1.80;99.90;;;;;;5018774;28;20067;-71
2021/12/06 08:37:05;;;;;;;172.93;43.83;;;1.80;99.90;;;;;;5019968;28;20049;-71
2021/12/06 08:39:50;;;;;;;172.93;43.55;;;1.80;99.90;;;;;;5022972;28;20060;-72
2021/12/06 08:42:36;;;;;;;159.23;43.45;;;1.90;99.90;;;;;;5031293;28;20048;-72
2021/12/06 08:45:22;;;;;;;172.55;44.67;;;1.90;99.90;;;;;;5022661;28;20425;-72
2021/12/06 08:48:07;;;;;;;176.63;44.13;;;2.00;99.90;;;;;;5018435;28;20056;-71
2021/12/06 08:50:55;;;;;;;174.77;44.80;;;1.90;99.90;;;;;;5050692;22;20047;-79
2021/12/06 08:53:42;;;;;;;188.70;43.75;;;1.90;99.90;;;;;;5034694;28;20044;-80
2021/12/06 08:56:28;;;;;;;200.27;43.05;;;1.90;99.90;;;;;;5040384;28;20438;-79
2021/12/06 08:59:14;;;;;;;191.85;45.25;;;1.80;99.90;;;;;;5029823;28;20048;-79
2021/12/06 09:01:59;;;;;;;170.48;40.42;;;1.90;99.90;;;;;;5009434;28;20053;-80
2021/12/06 09:05:06;;;;;;;132.75;39.10;;;1.90;99.90;;;;;;5010306;28;20083;-80
2021/12/06 09:07:52;;;;;;;140.80;41.63;;;1.90;99.90;;;;;;4989497;28;20073;-80
2021/12/06 09:10:38;;;;;;;121.80;34.40;;;2.00;99.90;;;;;;4994225;28;20277;-80
2021/12/06 09:13:28;;;;;;;94.45;30.90;;;2.20;99.90;;;;;;5010308;28;20152;-80
2021/12/06 09:16:14;;;;;;;101.03;32.13;;;2.10;99.90;;;;;;5009758;28;20116;-80
2021/12/06 09:19:01;;;;;;;96.30;30.38;;;2.20;99.90;;;;;;5011159;28;20064;-80
2021/12/06 09:21:46;;;;;;;92.75;28.02;;;2.30;99.90;;;;;;5001672;28;20118;-80
2021/12/06 09:24:32;;;;;;;;;;;2.50;99.90;;;;;;5014879;28;20104;-80
2021/12/06 09:27:18;;;;;;;77.28;26.58;;;2.70;99.90;;;;;;5006504;28;19952;-80
2021/12/06 09:30:07;;;;;;;79.15;24.77;;;2.50;99.90;;;;;;5009743;28;20101;-78
2021/12/06 09:32:54;;;;;;;77.10;26.55;;;2.50;99.90;;;;;;5010724;28;20467;-79
2021/12/06 09:35:43;;;;;;;79.95;27.92;;;2.40;99.90;;;;;;5008610;28;20064;-79
2021/12/06 09:38:39;;;;;;;88.95;29.27;;;2.40;99.90;;;;;;4992731;28;20571;-79
2021/12/06 09:41:27;;;;;;;130.65;29.58;;;2.40;99.90;;;;;;5008861;28;20558;-80
2021/12/06 09:44:13;;;;;;;84.03;27.55;;;2.40;99.90;;;;;;5008652;28;20076;-81
2021/12/06 09:47:00;;;;;;;73.25;24.45;;;2.50;99.90;;;;;;5007613;28;20049;-74
2021/12/06 09:49:45;;;;;;;85.68;26.00;;;2.60;99.90;;;;;;5005624;28;20728;-74
2021/12/06 09:52:30;;;;;;;;;;;2.60;99.90;;;;;;5005302;28;20053;-73
2021/12/06 09:55:16;;;;;;;77.30;26.65;;;2.50;99.90;;;;;;5014376;28;19976;-74
2021/12/06 09:58:03;;;;;;;72.25;25.60;;;2.40;99.90;;;;;;5008636;28;20052;-74
2021/12/06 10:00:55;;;;;;;83.53;24.20;;;2.50;99.90;;;;;;5000923;28;20577;-75
2021/12/06 10:03:41;;;;;;;80.32;26.52;;;2.60;99.90;;;;;;5008976;28;20428;-79
2021/12/06 10:06:30;;;;;;;85.72;28.15;;;2.70;99.90;;;;;;5006404;28;20067;-80
2021/12/06 10:09:18;;;;;;;90.65;27.17;;;2.70;99.90;;;;;;5006841;28;20649;-79
2021/12/06 10:12:04;;;;;;;78.40;26.63;;;2.70;99.90;;;;;;5008417;28;20053;-80
2021/12/06 10:14:49;;;;;;;83.55;29.80;;;2.70;99.90;;;;;;5009627;28;20582;-80
2021/12/06 10:17:34;;;;;;;77.63;27.85;;;2.60;99.90;;;;;;5008340;28;20052;-80
2021/12/06 10:20:21;;;;;;;75.85;26.25;;;2.80;99.90;;;;;;4995625;28;20052;-80
2021/12/06 10:23:06;;;;;;;84.05;28.50;;;2.70;99.90;;;;;;5009457;28;20073;-80
2021/12/06 10:25:53;;;;;;;77.25;27.50;;;2.80;99.90;;;;;;5022103;28;20434;-80
2021/12/06 10:28:42;;;;;;;74.60;27.75;;;2.90;99.90;;;;;;5007420;28;20208;-80
2021/12/06 10:31:30;;;;;;;70.05;27.98;;;2.90;99.90;;;;;;5008908;28;20049;-80
2021/12/06 10:34:25;;;;;;;64.63;27.25;;;3.00;99.90;;;;;;5009356;28;20084;-80
2021/12/06 10:37:37;;;;;;;66.07;25.23;;;2.90;99.90;;;;;;5003154;28;20061;-79
2021/12/06 10:40:27;;;;;;;58.58;23.50;;;2.90;99.90;;;;;;5001689;28;20052;-80
2021/12/06 10:43:13;;;;;;;62.13;24.83;;;2.80;99.90;;;;;;5005080;28;20120;-80
2021/12/06 10:46:00;;;;;;;67.30;26.10;;;2.90;99.90;;;;;;5007694;28;20061;-80
2021/12/06 10:48:46;;;;;;;64.53;24.70;;;2.80;99.90;;;;;;5007618;28;20052;-80
2021/12/06 10:51:32;;;;;;;64.00;25.50;;;2.80;99.90;;;;;;4992806;28;20041;-79
2021/12/06 10:54:34;;;;;;;70.78;25.92;;;2.90;99.90;;;;;;5012932;28;20119;-81
2021/12/06 10:57:22;;;;;;;66.80;24.50;;;3.10;99.90;;;;;;5013506;28;20087;-80
2021/12/06 11:00:34;;;;;;;54.38;23.23;;;3.20;99.90;;;;;;5006999;28;20044;-80
2021/12/06 11:03:37;;;;;;;63.92;24.80;;;3.30;99.90;;;;;;5007912;28;20136;-80
2021/12/06 11:06:29;;;;;;;51.70;21.55;;;3.40;99.90;;;;;;5005082;28;20528;-77
2021/12/06 11:09:21;;;;;;;54.80;22.17;;;3.50;99.90;;;;;;4999228;28;20053;-78
2021/12/06 11:12:08;;;;;;;59.50;24.02;;;3.60;99.90;;;;;;4986109;28;20555;-77
2021/12/06 11:14:54;;;;;;;52.72;21.33;;;4.00;99.90;;;;;;4986581;28;20524;-77
2021/12/06 11:17:39;;;;;;;;;;;3.90;99.90;;;;;;4985172;28;20054;-77
2021/12/06 11:20:25;;;;;;;45.90;20.58;;;3.90;99.90;;;;;;4986371;28;19929;-78
2021/12/06 11:23:13;;;;;;;41.78;19.88;;;3.80;99.90;;;;;;4998463;28;20065;-77
2021/12/06 11:26:02;;;;;;;42.45;19.77;;;4.10;99.90;;;;;;5014398;28;20436;-77
2021/12/06 11:28:47;;;;;;;45.45;19.80;;;4.30;99.90;;;;;;5003646;28;20694;-77
2021/12/06 11:31:33;;;;;;;46.78;21.65;;;4.30;99.90;;;;;;5004092;28;20057;-77
2021/12/06 11:34:19;;;;;;;42.20;19.27;;;4.10;99.90;;;;;;5004035;28;20463;-77
2021/12/06 11:37:17;;;;;;;41.88;20.15;;;4.30;99.90;;;;;;5003827;28;20048;-77
2021/12/06 11:40:19;;;;;;;43.80;20.40;;;4.40;99.90;;;;;;4999302;28;20642;-78
2021/12/06 11:43:08;;;;;;;44.22;21.23;;;4.40;99.90;;;;;;4988844;28;20161;-76
2021/12/06 11:45:57;;;;;;;47.75;22.13;;;4.50;99.90;;;;;;4989284;28;20078;-76
2021/12/06 11:48:43;;;;;;;46.63;21.40;;;4.30;99.90;;;;;;4989644;28;20551;-76
2021/12/06 11:51:28;;;;;;;48.92;22.67;;;4.40;99.90;;;;;;4995797;28;20699;-76
2021/12/06 11:54:13;;;;;;;50.08;22.30;;;4.40;99.90;;;;;;5023369;28;20122;-76
2021/12/06 11:57:04;;;;;;;53.42;23.95;;;4.40;99.90;;;;;;5019682;28;20420;-76
2021/12/06 11:59:53;;;;;;;64.15;25.33;;;4.60;99.90;;;;;;5016498;28;20464;-77
2021/12/06 12:02:41;;;;;;;50.17;22.88;;;4.70;99.90;;;;;;5007919;28;20069;-77
2021/12/06 12:05:35;;;;;;;53.65;24.88;;;4.40;99.90;;;;;;5006345;28;20076;-76
2021/12/06 12:08:20;;;;;;;51.40;24.13;;;4.30;99.90;;;;;;5007205;28;20057;-76
2021/12/06 12:11:05;;;;;;;;;;;4.30;99.90;;;;;;5010189;28;20088;-76
2021/12/06 12:13:53;;;;;;;48.90;23.85;;;4.10;99.90;;;;;;5009487;28;19994;-76
2021/12/06 12:16:39;;;;;;;50.03;23.60;;;4.10;99.90;;;;;;5008360;28;20124;-76
2021/12/06 12:19:25;;;;;;;54.00;23.92;;;4.10;99.90;;;;;;5009600;28;20060;-76
2021/12/06 12:22:12;;;;;;;47.42;23.30;;;4.10;99.90;;;;;;5009165;28;20439;-76
2021/12/06 12:25:05;;;;;;;51.42;23.90;;;4.10;99.90;;;;;;5012348;28;20061;-76
2021/12/06 12:28:02;;;;;;;53.58;23.05;;;4.20;99.90;;;;;;5009309;28;20053;-77
2021/12/06 12:30:52;;;;;;;47.85;22.58;;;4.00;99.90;;;;;;5006118;28;20076;-75
2021/12/06 12:33:38;;;;;;;55.75;23.83;;;4.00;99.90;;;;;;5006268;28;20057;-75
2021/12/06 12:36:25;;;;;;;53.33;25.48;;;3.90;99.90;;;;;;5028454;28;20048;-75
2021/12/06 12:39:17;;;;;;;54.50;22.95;;;3.90;99.90;;;;;;4997996;28;20545;-75
2021/12/06 12:42:05;;;;;;;44.83;22.48;;;4.00;99.90;;;;;;4999518;28;20181;-75
2021/12/06 12:44:56;;;;;;;57.75;23.13;;;3.90;99.90;;;;;;4989003;28;20060;-74
2021/12/06 12:47:43;;;;;;;47.70;23.00;;;3.80;99.90;;;;;;4986022;28;20058;-75
2021/12/06 12:50:30;;;;;;;51.83;24.73;;;3.80;99.90;;;;;;4987052;28;20596;-75
2021/12/06 12:53:17;;;;;;;42.92;21.73;;;3.90;99.90;;;;;;4989789;28;20061;-76
2021/12/06 12:56:21;;;;;;;51.55;23.40;;;3.90;99.90;;;;;;5014014;28;20167;-75
2021/12/06 12:59:43;;;;;;;45.40;23.00;;;4.00;99.90;;;;;;5017449;28;20074;-74
2021/12/06 13:02:31;;;;;;;51.47;23.13;;;4.00;99.90;;;;;;4987469;28;20065;-74
2021/12/06 13:05:26;;;;;;;43.83;21.98;;;4.10;99.90;;;;;;4986340;28;20073;-75
2021/12/06 13:08:12;;;;;;;50.38;24.00;;;4.10;99.90;;;;;;5002238;28;20062;-75
2021/12/06 13:10:57;;;;;;;46.08;22.65;;;4.10;99.90;;;;;;5006966;28;20048;-77
2021/12/06 13:13:48;;;;;;;48.05;23.15;;;4.10;99.90;;;;;;5006506;28;20076;-77
2021/12/06 13:16:54;;;;;;;47.60;23.88;;;4.10;99.90;;;;;;5006332;28;20184;-77
2021/12/06 13:20:07;;;;;;;38.53;21.38;;;4.10;99.90;;;;;;5009545;28;20143;-74
2021/12/06 13:22:56;;;;;;;42.00;21.17;;;4.20;99.90;;;;;;5008102;28;20076;-77
2021/12/06 13:25:41;;;;;;;38.85;20.17;;;4.50;99.90;;;;;;5012926;28;20575;-77
2021/12/06 13:28:26;;;;;;;45.83;21.42;;;4.60;99.90;;;;;;5008176;28;20049;-76
2021/12/06 13:31:24;;;;;;;39.17;21.85;;;4.50;99.90;;;;;;5004151;28;20733;-77
2021/12/06 13:34:30;;;;;;;50.00;23.38;;;4.50;99.90;;;;;;5004437;28;20057;-77
2021/12/06 13:37:25;;;;;;;37.55;21.15;;;4.40;99.90;;;;;;5004477;28;20527;-74
2021/12/06 13:40:19;;;;;;;36.30;20.88;;;4.40;99.90;;;;;;5004497;28;20061;-77
2021/12/06 13:43:15;;;;;;;42.65;24.35;;;4.30;99.90;;;;;;5004898;28;20128;-76
2021/12/06 13:46:04;;;;;;;43.45;22.77;;;4.20;99.90;;;;;;5005186;28;20151;-76
2021/12/06 13:48:55;;;;;;;40.88;21.30;;;4.10;99.90;;;;;;5005014;28;20211;-76
2021/12/06 13:51:57;;;;;;;37.08;19.90;;;4.00;99.90;;;;;;5003898;28;20049;-77
2021/12/06 13:54:49;;;;;;;38.45;21.85;;;4.00;99.90;;;;;;5004077;28;20092;-75
2021/12/06 13:57:34;;;;;;;40.40;21.85;;;3.90;99.90;;;;;;5011939;28;20065;-76
2021/12/06 14:00:27;;;;;;;59.25;30.55;;;3.90;99.90;;;;;;5002974;28;20539;-76
2021/12/06 14:03:39;;;;;;;43.08;21.35;;;3.80;99.90;;;;;;5004644;28;20797;-76
2021/12/06 14:06:39;;;;;;;41.47;21.00;;;3.80;99.90;;;;;;5003586;28;20064;-76
2021/12/06 14:09:28;;;;;;;40.80;23.73;;;3.70;99.90;;;;;;5004179;28;20060;-76
2021/12/06 14:12:24;;;;;;;47.53;23.60;;;3.70;99.90;;;;;;5004307;28;20100;-76
2021/12/06 14:15:17;;;;;;;41.17;23.95;;;3.60;99.90;;;;;;5005606;28;20060;-76
2021/12/06 14:18:04;;;;;;;46.40;24.58;;;3.50;99.90;;;;;;5005630;28;20056;-76
2021/12/06 14:20:59;;;;;;;45.60;25.05;;;3.50;99.90;;;;;;5016776;28;20104;-77
2021/12/06 14:23:47;;;;;;;46.05;24.85;;;3.40;99.90;;;;;;5000738;28;20140;-77
2021/12/06 14:26:41;;;;;;;47.97;24.27;;;3.30;99.90;;;;;;5015097;28;20214;-76
2021/12/06 14:29:29;;;;;;;43.88;23.65;;;3.30;99.90;;;;;;5004301;28;20433;-77
2021/12/06 14:32:14;;;;;;;49.10;26.83;;;3.20;99.90;;;;;;5003674;28;20121;-77
2021/12/06 14:34:59;;;;;;;44.92;25.30;;;3.10;99.90;;;;;;5005384;28;20119;-76
2021/12/06 14:37:45;;;;;;;53.47;27.48;;;3.00;99.90;;;;;;5005116;28;20049;-76
2021/12/06 14:40:30;;;;;;;48.42;26.92;;;3.00;99.90;;;;;;5004906;28;20165;-77
2021/12/06 14:43:17;;;;;;;56.42;27.15;;;2.90;99.90;;;;;;5005365;28;20734;-77
2021/12/06 14:46:06;;;;;;;50.03;26.92;;;2.80;99.90;;;;;;5004827;28;20096;-77